createdAt,value
2017-06-20T00:01:23.545Z,68.60
2017-06-20T00:03:51.089Z,69.10
2017-06-20T00:06:19.300Z,69.60
2017-06-20T00:08:46.732Z,69.60
2017-06-20T00:11:14.233Z,69.70
2017-06-20T00:13:41.669Z,70.00
2017-06-20T00:16:09.101Z,70.60
2017-06-20T00:18:36.545Z,70.10
2017-06-20T00:21:04.749Z,70.60
2017-06-20T00:23:32.188Z,70.50
2017-06-20T00:26:07.944Z,71.10
2017-06-20T00:28:35.413Z,71.80
2017-06-20T00:31:02.846Z,71.90
2017-06-20T00:33:31.045Z,73.60
2017-06-20T00:35:58.488Z,72.70
2017-06-20T00:38:25.925Z,73.10
2017-06-20T00:40:54.148Z,74.80
2017-06-20T00:43:21.589Z,74.70
2017-06-20T00:45:49.014Z,74.40
2017-06-20T00:48:17.222Z,74.40
2017-06-20T00:50:44.656Z,74.40
2017-06-20T00:53:12.865Z,74.80
2017-06-20T00:55:40.305Z,74.70
2017-06-20T00:58:07.745Z,75.20
2017-06-20T01:00:35.957Z,75.80
2017-06-20T01:03:03.406Z,75.80
2017-06-20T01:05:30.839Z,76.00
2017-06-20T01:07:58.273Z,76.50
2017-06-20T01:10:26.473Z,77.60
2017-06-20T01:12:53.931Z,77.10
2017-06-20T01:15:21.360Z,77.00
2017-06-20T01:17:49.597Z,77.20
2017-06-20T01:20:17.300Z,77.20
2017-06-20T01:22:45.496Z,77.30
2017-06-20T01:25:12.953Z,77.30
2017-06-20T01:27:40.382Z,77.20
2017-06-20T01:30:07.836Z,77.00
2017-06-20T01:32:35.264Z,77.20
2017-06-20T01:35:02.701Z,76.70
2017-06-20T01:37:30.146Z,76.20
2017-06-20T01:39:57.577Z,75.60
2017-06-20T01:42:25.794Z,75.30
2017-06-20T01:44:53.229Z,75.10
2017-06-20T01:47:20.659Z,74.70
2017-06-20T01:49:48.865Z,74.90
2017-06-20T01:52:16.301Z,74.70
2017-06-20T01:54:44.512Z,74.80
2017-06-20T01:57:11.940Z,74.80
2017-06-20T01:59:39.371Z,74.20
2017-06-20T02:02:06.849Z,74.40
2017-06-20T02:04:35.047Z,73.60
2017-06-20T02:07:02.489Z,73.60
2017-06-20T02:09:29.944Z,74.00
2017-06-20T02:11:57.373Z,73.80
2017-06-20T02:14:24.799Z,74.40
2017-06-20T02:16:52.235Z,74.20
2017-06-20T02:19:19.693Z,74.30
2017-06-20T02:21:47.128Z,74.70
2017-06-20T02:24:14.563Z,74.90
2017-06-20T02:26:42.767Z,76.20
2017-06-20T02:29:11.216Z,76.10
2017-06-20T02:31:39.424Z,76.60
2017-06-20T02:34:06.860Z,76.60
2017-06-20T02:36:35.073Z,77.20
2017-06-20T02:39:02.580Z,77.20
2017-06-20T02:41:30.777Z,77.10
2017-06-20T02:43:58.223Z,77.00
2017-06-20T02:46:26.489Z,77.10
2017-06-20T02:48:54.692Z,76.50
2017-06-20T02:51:22.121Z,76.30
2017-06-20T02:53:50.424Z,76.60
2017-06-20T02:56:17.869Z,76.40
2017-06-20T02:58:46.060Z,76.40
2017-06-20T03:01:13.500Z,76.30
2017-06-20T03:03:41.691Z,76.30
2017-06-20T03:06:09.129Z,76.30
2017-06-20T03:08:36.564Z,76.60
2017-06-20T03:11:13.875Z,76.50
2017-06-20T03:13:41.313Z,76.00
2017-06-20T03:16:08.744Z,76.30
2017-06-20T03:18:36.212Z,76.30
2017-06-20T03:21:03.640Z,77.50
2017-06-20T03:23:31.080Z,76.40
2017-06-20T03:25:58.584Z,76.60
2017-06-20T03:28:26.004Z,76.40
2017-06-20T03:30:53.440Z,76.20
2017-06-20T03:33:20.869Z,76.90
2017-06-20T03:35:49.079Z,77.10
2017-06-20T03:38:16.508Z,77.00
2017-06-20T03:40:44.723Z,77.90
2017-06-20T03:43:12.175Z,77.70
2017-06-20T03:45:39.620Z,78.20
2017-06-20T03:48:07.050Z,78.70
2017-06-20T03:50:35.251Z,79.70
2017-06-20T03:53:02.684Z,79.70
2017-06-20T03:55:30.952Z,80.50
2017-06-20T03:57:59.151Z,80.90
2017-06-20T04:00:26.584Z,80.50
2017-06-20T04:02:54.816Z,80.60
2017-06-20T04:05:22.243Z,80.60
2017-06-20T04:07:49.680Z,81.00
2017-06-20T04:10:17.888Z,80.90
2017-06-20T04:12:45.325Z,80.80
2017-06-20T04:15:12.763Z,80.30
2017-06-20T04:17:40.959Z,80.00
2017-06-20T04:20:08.411Z,79.30
2017-06-20T04:22:36.600Z,79.50
2017-06-20T04:25:04.031Z,79.30
2017-06-20T04:27:32.243Z,79.10
2017-06-20T04:29:59.677Z,78.20
2017-06-20T04:32:27.112Z,78.20
2017-06-20T04:34:54.543Z,78.00
2017-06-20T04:37:22.000Z,78.00
2017-06-20T04:39:49.437Z,77.90
2017-06-20T04:42:16.864Z,78.40
2017-06-20T04:44:44.305Z,78.40
2017-06-20T04:47:12.501Z,78.30
2017-06-20T04:49:39.939Z,78.30
2017-06-20T04:52:08.129Z,77.70
2017-06-20T04:54:35.568Z,77.70
2017-06-20T04:57:03.760Z,77.40
2017-06-20T04:59:31.196Z,77.40
2017-06-20T05:01:59.407Z,76.80
2017-06-20T05:04:26.832Z,76.70
2017-06-20T05:06:54.280Z,76.90
2017-06-20T05:09:22.476Z,73.30
2017-06-20T05:11:49.924Z,73.30
2017-06-20T05:14:17.356Z,72.90
2017-06-20T05:16:44.788Z,71.90
2017-06-20T05:19:12.240Z,71.70
2017-06-20T05:21:39.665Z,70.60
2017-06-20T05:24:07.105Z,70.60
2017-06-20T05:26:34.541Z,69.10
2017-06-20T05:29:02.755Z,68.70
2017-06-20T05:31:30.181Z,67.90
2017-06-20T05:33:58.381Z,66.20
2017-06-20T05:36:25.823Z,66.20
2017-06-20T05:38:53.259Z,65.40
2017-06-20T05:41:21.474Z,63.90
2017-06-20T05:43:48.916Z,63.90
2017-06-20T05:46:16.364Z,62.90
2017-06-20T05:48:43.803Z,62.10
2017-06-20T05:51:12.004Z,62.20
2017-06-20T05:53:39.439Z,62.10
2017-06-20T05:56:07.645Z,60.60
2017-06-20T05:58:35.117Z,60.50
2017-06-20T06:01:02.552Z,60.90
2017-06-20T06:03:30.248Z,59.10
2017-06-20T06:05:57.682Z,58.80
2017-06-20T06:08:25.117Z,57.70
2017-06-20T06:10:52.556Z,57.40
2017-06-20T06:13:20.752Z,58.20
2017-06-20T06:15:48.192Z,58.10
2017-06-20T06:18:16.380Z,56.20
2017-06-20T06:20:44.080Z,56.70
2017-06-20T06:23:11.516Z,55.50
2017-06-20T06:25:38.946Z,55.80
2017-06-20T06:28:07.163Z,54.80
2017-06-20T06:30:34.592Z,54.70
2017-06-20T06:33:02.029Z,54.30
2017-06-20T06:35:30.232Z,54.30
2017-06-20T06:37:57.688Z,54.30
2017-06-20T06:40:25.111Z,53.80
2017-06-20T06:42:53.312Z,54.10
2017-06-20T06:45:20.752Z,53.50
2017-06-20T06:47:48.177Z,52.50
2017-06-20T06:50:15.612Z,52.60
2017-06-20T06:52:43.046Z,52.00
2017-06-20T06:55:10.480Z,51.90
2017-06-20T06:57:38.844Z,51.80
2017-06-20T07:00:06.273Z,50.80
2017-06-20T07:02:33.713Z,51.00
2017-06-20T07:05:01.146Z,50.30
2017-06-20T07:07:28.615Z,50.90
2017-06-20T07:09:56.118Z,51.50
2017-06-20T07:12:23.533Z,51.30
2017-06-20T07:14:50.965Z,50.80
2017-06-20T07:17:18.389Z,50.60
2017-06-20T07:19:45.841Z,49.30
2017-06-20T07:22:13.272Z,49.70
2017-06-20T07:24:40.704Z,48.30
2017-06-20T07:27:08.139Z,49.00
2017-06-20T07:29:35.565Z,48.80
2017-06-20T07:32:02.997Z,48.00
2017-06-20T07:34:30.427Z,48.30
2017-06-20T07:36:57.877Z,48.50
2017-06-20T07:39:25.309Z,47.80
2017-06-20T07:41:52.734Z,48.00
2017-06-20T07:44:20.173Z,47.00
2017-06-20T07:46:47.600Z,46.60
2017-06-20T07:49:15.036Z,47.30
2017-06-20T07:51:42.460Z,46.20
2017-06-20T07:54:09.910Z,44.60
2017-06-20T07:56:37.340Z,43.10
2017-06-20T07:59:04.861Z,43.20
2017-06-20T08:01:32.301Z,43.80
2017-06-20T08:03:59.776Z,41.20
2017-06-20T08:06:27.215Z,41.30
2017-06-20T08:08:54.644Z,39.90
2017-06-20T08:11:22.073Z,40.00
2017-06-20T08:13:49.492Z,39.70
2017-06-20T08:16:16.928Z,39.70
2017-06-20T08:18:44.367Z,40.40
2017-06-20T08:21:17.404Z,40.40
2017-06-20T08:23:44.831Z,39.40
2017-06-20T08:26:12.268Z,38.20
2017-06-20T08:28:39.699Z,40.60
2017-06-20T08:31:07.128Z,41.00
2017-06-20T08:33:34.585Z,43.30
2017-06-20T08:36:05.811Z,41.20
2017-06-20T08:38:34.931Z,42.10
2017-06-20T08:41:03.124Z,39.50
2017-06-20T08:43:30.549Z,39.40
2017-06-20T08:45:57.989Z,39.30
2017-06-20T08:48:25.442Z,39.40
2017-06-20T08:50:52.882Z,37.10
2017-06-20T08:53:20.308Z,37.80
2017-06-20T08:55:47.761Z,36.30
2017-06-20T08:58:15.954Z,36.40
2017-06-20T09:00:43.489Z,36.20
2017-06-20T09:03:11.683Z,36.80
2017-06-20T09:05:39.115Z,36.10
2017-06-20T09:08:07.319Z,37.30
2017-06-20T09:10:34.912Z,37.10
2017-06-20T09:13:02.345Z,40.20
2017-06-20T09:15:29.846Z,35.90
2017-06-20T09:17:57.478Z,34.50
2017-06-20T09:20:24.896Z,36.20
2017-06-20T09:22:52.334Z,39.40
2017-06-20T09:25:20.528Z,36.50
2017-06-20T09:27:47.993Z,36.50
2017-06-20T09:30:16.216Z,36.90
2017-06-20T09:32:43.643Z,36.90
2017-06-20T09:35:11.073Z,35.40
2017-06-20T09:37:38.507Z,33.30
2017-06-20T09:40:06.741Z,35.50
2017-06-20T09:42:34.226Z,35.50
2017-06-20T09:45:01.775Z,33.90
2017-06-20T09:47:29.569Z,33.00
2017-06-20T09:49:57.769Z,33.50
2017-06-20T09:52:25.198Z,33.60
2017-06-20T09:54:53.408Z,34.60
2017-06-20T09:57:20.827Z,34.00
2017-06-20T09:59:49.050Z,35.80
2017-06-20T10:02:16.477Z,35.80
2017-06-20T10:04:43.896Z,33.10
2017-06-20T10:07:11.336Z,31.80
2017-06-20T10:09:38.777Z,35.70
2017-06-20T10:12:06.227Z,32.90
2017-06-20T10:14:33.653Z,32.00
2017-06-20T10:17:01.086Z,32.40
2017-06-20T10:19:28.569Z,31.60
2017-06-20T10:21:56.762Z,31.50
2017-06-20T10:24:24.213Z,31.50
2017-06-20T10:26:51.661Z,30.40
2017-06-20T10:29:19.083Z,30.00
2017-06-20T10:31:46.562Z,29.90
2017-06-20T10:34:14.761Z,30.00
2017-06-20T10:36:42.249Z,30.00
2017-06-20T10:39:09.678Z,28.30
2017-06-20T10:41:37.146Z,27.30
2017-06-20T10:44:04.573Z,27.40
2017-06-20T10:46:32.001Z,27.80
2017-06-20T10:48:59.449Z,29.60
2017-06-20T10:51:26.876Z,29.10
2017-06-20T10:53:54.440Z,28.60
2017-06-20T10:56:21.875Z,24.80
2017-06-20T10:58:49.309Z,25.80
2017-06-20T11:01:17.509Z,26.30
2017-06-20T11:03:45.001Z,26.30
2017-06-20T11:06:12.432Z,26.20
2017-06-20T11:08:39.864Z,25.30
2017-06-20T11:11:07.296Z,26.20
2017-06-20T11:13:34.711Z,26.30
2017-06-20T11:16:02.202Z,26.80
2017-06-20T11:18:29.635Z,24.70
2017-06-20T11:20:57.064Z,26.90
2017-06-20T11:23:24.500Z,25.50
2017-06-20T11:25:51.976Z,23.50
2017-06-20T11:28:19.413Z,24.90
2017-06-20T11:30:46.843Z,25.80
2017-06-20T11:33:14.280Z,24.50
2017-06-20T11:35:41.717Z,23.90
2017-06-20T11:38:09.145Z,22.30
2017-06-20T11:40:36.576Z,24.90
2017-06-20T11:43:04.773Z,25.80
2017-06-20T11:45:32.206Z,25.60
2017-06-20T11:47:59.633Z,25.20
2017-06-20T11:50:27.081Z,22.70
2017-06-20T11:52:54.517Z,24.00
2017-06-20T11:55:21.941Z,26.00
2017-06-20T11:57:50.141Z,25.60
2017-06-20T12:00:17.565Z,25.50
2017-06-20T12:02:45.035Z,25.30
2017-06-20T12:05:12.464Z,25.10
2017-06-20T12:07:39.913Z,25.10
2017-06-20T12:10:07.329Z,25.50
2017-06-20T12:12:34.759Z,25.80
2017-06-20T12:15:02.952Z,24.60
2017-06-20T12:17:30.387Z,24.50
2017-06-20T12:19:58.609Z,25.80
2017-06-20T12:22:26.032Z,25.80
2017-06-20T12:24:53.469Z,24.90
2017-06-20T12:27:21.678Z,26.20
2017-06-20T12:29:49.105Z,26.20
2017-06-20T12:32:17.313Z,26.60
2017-06-20T12:34:44.744Z,26.60
2017-06-20T12:37:12.957Z,26.30
2017-06-20T12:39:44.840Z,26.30
2017-06-20T12:42:12.252Z,28.30
2017-06-20T12:44:39.689Z,26.80
2017-06-20T12:47:08.723Z,26.10
2017-06-20T12:49:36.161Z,26.00
2017-06-20T12:52:03.663Z,26.70
2017-06-20T12:54:31.094Z,26.10
2017-06-20T12:56:58.525Z,26.90
2017-06-20T12:59:25.954Z,26.90
2017-06-20T13:01:53.381Z,27.80
2017-06-20T13:04:20.868Z,27.30
2017-06-20T13:06:48.282Z,27.20
2017-06-20T13:09:15.713Z,27.80
2017-06-20T13:11:43.257Z,27.10
2017-06-20T13:14:11.453Z,26.90
2017-06-20T13:16:38.877Z,26.90
2017-06-20T13:19:06.309Z,27.70
2017-06-20T13:21:33.797Z,27.00
2017-06-20T13:24:01.993Z,27.30
2017-06-20T13:26:29.421Z,27.20
2017-06-20T13:28:57.648Z,26.80
2017-06-20T13:31:25.068Z,27.30
2017-06-20T13:33:52.492Z,27.80
2017-06-20T13:36:19.939Z,27.30
2017-06-20T13:38:47.366Z,27.10
2017-06-20T13:41:14.896Z,27.00
2017-06-20T13:43:43.085Z,28.50
2017-06-20T13:46:10.528Z,28.00
2017-06-20T13:48:37.959Z,30.00
2017-06-20T13:51:05.384Z,29.60
2017-06-20T13:53:32.820Z,29.00
2017-06-20T13:56:00.240Z,29.00
2017-06-20T13:58:27.668Z,27.20
2017-06-20T14:00:55.102Z,27.10
2017-06-20T14:03:22.552Z,27.90
2017-06-20T14:05:49.979Z,29.80
2017-06-20T14:08:18.183Z,28.30
2017-06-20T14:10:45.612Z,28.30
2017-06-20T14:13:13.045Z,27.20
2017-06-20T14:15:41.248Z,29.00
2017-06-20T14:18:08.672Z,29.00
2017-06-20T14:20:36.155Z,30.00
2017-06-20T14:23:03.588Z,30.40
2017-06-20T14:25:31.782Z,30.00
2017-06-20T14:27:59.989Z,29.00
2017-06-20T14:30:27.518Z,29.00
2017-06-20T14:32:55.777Z,28.80
2017-06-20T14:35:23.970Z,28.90
2017-06-20T14:37:51.499Z,28.90
2017-06-20T14:40:18.928Z,29.80
2017-06-20T14:42:46.368Z,29.10
2017-06-20T14:45:13.852Z,29.00
2017-06-20T14:47:41.264Z,28.60
2017-06-20T14:50:08.696Z,30.00
2017-06-20T14:52:36.893Z,29.30
2017-06-20T14:55:04.346Z,29.30
2017-06-20T14:57:31.764Z,28.60
2017-06-20T14:59:59.192Z,28.40
2017-06-20T15:02:26.638Z,28.40
2017-06-20T15:04:54.068Z,29.60
2017-06-20T15:07:21.504Z,28.90
2017-06-20T15:09:49.701Z,30.30
2017-06-20T15:12:17.164Z,30.30
2017-06-20T15:14:44.595Z,32.40
2017-06-20T15:17:12.785Z,27.70
2017-06-20T15:19:40.221Z,27.70
2017-06-20T15:22:08.417Z,30.70
2017-06-20T15:24:35.843Z,30.60
2017-06-20T15:27:03.268Z,29.10
2017-06-20T15:29:30.713Z,28.50
2017-06-20T15:31:58.141Z,28.00
2017-06-20T15:34:25.576Z,28.10
2017-06-20T15:36:53.779Z,28.60
2017-06-20T15:39:21.549Z,28.60
2017-06-20T15:41:49.160Z,28.70
2017-06-20T15:44:17.402Z,30.00
2017-06-20T15:46:45.073Z,30.00
2017-06-20T15:49:12.968Z,30.20
2017-06-20T15:51:40.606Z,31.40
2017-06-20T15:54:08.258Z,31.30
2017-06-20T15:56:36.143Z,30.30
2017-06-20T15:59:03.895Z,31.70
2017-06-20T16:01:31.879Z,29.80
2017-06-20T16:03:59.744Z,30.00
2017-06-20T16:06:27.302Z,29.10
2017-06-20T16:08:54.942Z,29.70
2017-06-20T16:11:22.538Z,29.40
2017-06-20T16:13:50.150Z,29.00
2017-06-20T16:16:17.762Z,28.40
2017-06-20T16:18:45.482Z,30.20
2017-06-20T16:21:13.086Z,30.50
2017-06-20T16:23:40.856Z,30.90
2017-06-20T16:26:09.407Z,32.10
2017-06-20T16:28:36.946Z,32.10
2017-06-20T16:31:04.660Z,32.90
2017-06-20T16:33:32.977Z,32.80
2017-06-20T16:36:00.599Z,32.80
2017-06-20T16:38:28.034Z,33.80
2017-06-20T16:40:55.524Z,33.50
2017-06-20T16:43:22.928Z,34.10
2017-06-20T16:45:50.352Z,33.60
2017-06-20T16:48:17.787Z,34.40
2017-06-20T16:50:45.984Z,35.10
2017-06-20T16:53:13.416Z,35.00
2017-06-20T16:55:41.611Z,35.50
2017-06-20T16:58:09.216Z,35.40
2017-06-20T17:00:36.651Z,36.10
2017-06-20T17:03:04.072Z,35.50
2017-06-20T17:05:32.284Z,36.70
2017-06-20T17:07:59.708Z,36.60
2017-06-20T17:10:27.154Z,36.60
2017-06-20T17:12:55.352Z,35.90
2017-06-20T17:15:22.812Z,35.90
2017-06-20T17:17:50.235Z,36.30
2017-06-20T17:20:18.428Z,36.50
2017-06-20T17:22:45.963Z,36.50
2017-06-20T17:25:14.161Z,37.70
2017-06-20T17:27:41.592Z,37.70
2017-06-20T17:30:12.540Z,36.90
2017-06-20T17:32:40.832Z,36.90
2017-06-20T17:35:08.263Z,36.90
2017-06-20T17:37:35.713Z,37.10
2017-06-20T17:40:03.322Z,38.00
2017-06-20T17:42:30.974Z,37.70
2017-06-20T17:44:59.329Z,37.90
2017-06-20T17:47:26.909Z,37.80
2017-06-20T17:49:55.235Z,38.30
2017-06-20T17:52:22.775Z,38.30
2017-06-20T17:54:50.287Z,38.20
2017-06-20T17:57:17.877Z,39.30
2017-06-20T17:59:45.572Z,38.80
2017-06-20T18:02:13.158Z,38.40
2017-06-20T18:04:40.942Z,38.10
2017-06-20T18:07:08.536Z,38.50
2017-06-20T18:09:36.028Z,38.80
2017-06-20T18:12:03.666Z,38.90
2017-06-20T18:14:31.168Z,38.50
2017-06-20T18:16:58.633Z,39.50
2017-06-20T18:19:26.900Z,39.50
2017-06-20T18:21:55.099Z,39.40
2017-06-20T18:24:22.529Z,39.30
2017-06-20T18:26:50.028Z,39.90
2017-06-20T18:29:17.540Z,39.30
2017-06-20T18:31:44.984Z,39.90
2017-06-20T18:34:12.408Z,39.50
2017-06-20T18:36:39.845Z,39.50
2017-06-20T18:39:08.267Z,40.00
2017-06-20T18:41:35.700Z,39.70
2017-06-20T18:44:03.951Z,40.20
2017-06-20T18:46:31.389Z,40.80
2017-06-20T18:48:58.820Z,42.20
2017-06-20T18:51:26.256Z,41.70
2017-06-20T18:53:53.685Z,42.90
2017-06-20T18:56:21.116Z,44.90
2017-06-20T18:58:48.560Z,43.10
2017-06-20T19:01:16.772Z,43.60
2017-06-20T19:03:44.200Z,43.60
2017-06-20T19:06:14.412Z,44.60
2017-06-20T19:08:41.844Z,44.50
2017-06-20T19:11:09.332Z,45.50
2017-06-20T19:13:37.534Z,46.40
2017-06-20T19:16:04.964Z,46.40
2017-06-20T19:18:33.167Z,45.60
2017-06-20T19:21:00.587Z,45.50
2017-06-20T19:23:28.048Z,46.40
2017-06-20T19:25:56.231Z,46.70
2017-06-20T19:28:23.728Z,46.70
2017-06-20T19:30:51.164Z,47.50
2017-06-20T19:33:18.592Z,47.90
2017-06-20T19:35:46.800Z,51.10
2017-06-20T19:38:14.224Z,51.10
2017-06-20T19:40:42.436Z,47.30
2017-06-20T19:43:09.872Z,47.30
2017-06-20T19:45:38.073Z,46.90
2017-06-20T19:48:05.504Z,46.80
2017-06-20T19:50:32.940Z,46.80
2017-06-20T19:53:01.136Z,46.30
2017-06-20T19:55:28.564Z,46.30
2017-06-20T19:57:55.987Z,47.00
2017-06-20T20:00:23.422Z,46.50
2017-06-20T20:02:50.852Z,47.00
2017-06-20T20:05:19.049Z,47.10
2017-06-20T20:07:50.935Z,47.00
2017-06-20T20:10:18.352Z,47.40
2017-06-20T20:12:45.784Z,47.50
2017-06-20T20:15:13.212Z,47.20
2017-06-20T20:17:40.650Z,47.50
2017-06-20T20:20:08.105Z,47.70
2017-06-20T20:22:35.536Z,47.90
2017-06-20T20:25:02.979Z,47.90
2017-06-20T20:27:30.405Z,48.00
2017-06-20T20:29:57.837Z,48.60
2017-06-20T20:32:25.272Z,48.30
2017-06-20T20:34:52.695Z,48.50
2017-06-20T20:37:20.901Z,49.90
2017-06-20T20:39:48.332Z,49.20
2017-06-20T20:42:15.780Z,49.30
2017-06-20T20:44:43.228Z,49.50
2017-06-20T20:47:10.652Z,49.30
2017-06-20T20:49:38.088Z,49.70
2017-06-20T20:52:05.516Z,50.40
2017-06-20T20:54:33.017Z,50.20
2017-06-20T20:57:00.425Z,51.10
2017-06-20T20:59:28.649Z,51.80
2017-06-20T21:01:56.061Z,51.20
2017-06-20T21:04:23.498Z,51.10
2017-06-20T21:06:50.921Z,51.50
2017-06-20T21:09:18.351Z,51.70
2017-06-20T21:11:45.800Z,52.00
2017-06-20T21:14:13.252Z,52.10
2017-06-20T21:16:40.669Z,52.30
2017-06-20T21:19:08.108Z,52.50
2017-06-20T21:21:35.536Z,52.80
2017-06-20T21:24:02.964Z,53.20
2017-06-20T21:26:31.169Z,53.90
2017-06-20T21:28:58.596Z,53.80
2017-06-20T21:31:26.817Z,54.10
2017-06-20T21:33:54.249Z,54.10
2017-06-20T21:36:23.241Z,54.30
2017-06-20T21:38:50.668Z,54.50
2017-06-20T21:41:18.108Z,54.90
2017-06-20T21:43:45.547Z,55.10
2017-06-20T21:46:12.985Z,55.10
2017-06-20T21:48:40.420Z,55.40
2017-06-20T21:51:07.852Z,55.80
2017-06-20T21:53:35.288Z,55.80
2017-06-20T21:56:02.724Z,55.80
2017-06-20T21:58:30.180Z,56.10
2017-06-20T22:00:57.620Z,56.10
2017-06-20T22:03:25.072Z,56.10
2017-06-20T22:05:53.248Z,56.60
2017-06-20T22:08:20.684Z,56.60
2017-06-20T22:10:48.112Z,56.60
2017-06-20T22:13:15.552Z,56.90
2017-06-20T22:15:42.992Z,56.70
2017-06-20T22:18:10.432Z,57.00
2017-06-20T22:20:37.860Z,57.10
2017-06-20T22:23:06.056Z,57.20
2017-06-20T22:25:33.491Z,57.10
2017-06-20T22:28:00.920Z,57.40
2017-06-20T22:30:28.367Z,57.50
2017-06-20T22:32:55.803Z,57.60
2017-06-20T22:35:23.240Z,57.80
2017-06-20T22:37:50.675Z,57.60
2017-06-20T22:40:18.872Z,57.90
2017-06-20T22:42:46.304Z,57.90
2017-06-20T22:45:14.504Z,57.80
2017-06-20T22:47:41.923Z,57.80
2017-06-20T22:50:10.213Z,58.00
2017-06-20T22:52:37.648Z,57.80
2017-06-20T22:55:05.080Z,58.00
2017-06-20T22:57:32.505Z,58.20
2017-06-20T22:59:59.940Z,58.20
2017-06-20T23:02:28.204Z,58.20
2017-06-20T23:04:55.642Z,58.20
2017-06-20T23:07:23.076Z,58.40
2017-06-20T23:09:50.509Z,58.50
2017-06-20T23:12:17.928Z,58.20
2017-06-20T23:14:45.357Z,58.20
2017-06-20T23:17:12.795Z,58.70
2017-06-20T23:19:40.225Z,58.20
2017-06-20T23:22:07.656Z,58.30
2017-06-20T23:24:35.856Z,58.30
2017-06-20T23:27:03.296Z,58.20
2017-06-20T23:29:31.571Z,58.50
2017-06-20T23:31:59.801Z,58.50
2017-06-20T23:34:27.236Z,58.50
2017-06-20T23:36:54.660Z,58.50
2017-06-20T23:39:22.093Z,58.50
2017-06-20T23:41:49.520Z,58.70
2017-06-20T23:44:16.982Z,58.50
2017-06-20T23:46:44.399Z,58.60
2017-06-20T23:49:11.832Z,58.60
2017-06-20T23:51:40.116Z,59.70
2017-06-20T23:54:08.320Z,58.90
2017-06-20T23:56:35.748Z,58.80
2017-06-20T23:59:03.948Z,58.90
